createdAt,value
2022-08-18T00:02:30.644Z,100.00
2022-08-18T00:05:34.102Z,100.00
2022-08-18T00:08:40.467Z,100.00
2022-08-18T00:11:44.028Z,100.00
2022-08-18T00:14:47.069Z,100.00
2022-08-18T00:17:49.045Z,100.00
2022-08-18T00:20:51.220Z,100.00
2022-08-18T00:23:53.726Z,100.00
2022-08-18T00:26:55.743Z,100.00
2022-08-18T00:30:01.703Z,100.00
2022-08-18T00:33:03.761Z,100.00
2022-08-18T00:36:05.831Z,100.00
2022-08-18T00:39:07.902Z,100.00
2022-08-18T00:42:28.930Z,100.00
2022-08-18T00:45:36.027Z,100.00
2022-08-18T00:48:38.050Z,100.00
2022-08-18T00:51:46.281Z,100.00
2022-08-18T00:54:50.433Z,100.00
2022-08-18T00:57:55.430Z,100.00
2022-08-18T01:00:59.774Z,100.00
2022-08-18T01:04:19.445Z,100.00
2022-08-18T01:07:26.833Z,100.00
2022-08-18T01:10:29.867Z,100.00
2022-08-18T01:13:32.741Z,100.00
2022-08-18T01:16:35.673Z,100.00
2022-08-18T01:19:37.859Z,100.00
2022-08-18T01:22:45.878Z,100.00
2022-08-18T01:25:49.904Z,100.00
2022-08-18T01:28:52.185Z,100.00
2022-08-18T01:31:54.260Z,100.00
2022-08-18T01:34:57.075Z,100.00
2022-08-18T01:37:59.084Z,100.00
2022-08-18T01:41:27.152Z,100.00
2022-08-18T01:44:23.174Z,100.00
2022-08-18T01:47:25.466Z,100.00
2022-08-18T01:50:27.469Z,100.00
2022-08-18T01:53:29.581Z,100.00
2022-08-18T01:56:31.657Z,100.00
2022-08-18T01:59:33.662Z,100.00
2022-08-18T02:02:35.889Z,100.00
2022-08-18T02:05:44.810Z,100.00
2022-08-18T02:08:53.826Z,100.00
2022-08-18T02:11:56.219Z,100.00
2022-08-18T02:14:58.250Z,100.00
2022-08-18T02:18:00.667Z,100.00
2022-08-18T02:21:14.461Z,100.00
2022-08-18T02:24:21.242Z,100.00
2022-08-18T02:27:23.315Z,100.00
2022-08-18T02:30:25.392Z,100.00
2022-08-18T02:33:27.425Z,100.00
2022-08-18T02:36:29.447Z,100.00
2022-08-18T02:39:35.286Z,100.00
2022-08-18T02:42:37.353Z,100.00
2022-08-18T02:45:39.701Z,100.00
2022-08-18T02:48:41.724Z,100.00
2022-08-18T02:51:44.763Z,100.00
2022-08-18T02:54:46.796Z,100.00
2022-08-18T02:57:48.893Z,100.00
2022-08-18T03:00:50.921Z,100.00
2022-08-18T03:03:53.667Z,100.00
2022-08-18T03:07:01.619Z,100.00
2022-08-18T03:10:31.948Z,100.00
2022-08-18T03:13:25.938Z,100.00
2022-08-18T03:16:28.095Z,100.00
2022-08-18T03:19:30.285Z,100.00
2022-08-18T03:22:32.321Z,100.00
2022-08-18T03:25:34.443Z,100.00
2022-08-18T03:28:36.894Z,100.00
2022-08-18T03:31:39.394Z,100.00
2022-08-18T03:34:41.417Z,100.00
2022-08-18T03:37:43.483Z,100.00
2022-08-18T03:40:51.997Z,100.00
2022-08-18T03:43:54.143Z,100.00
2022-08-18T03:46:57.026Z,100.00
2022-08-18T03:49:59.046Z,100.00
2022-08-18T03:53:01.192Z,100.00
2022-08-18T03:56:08.011Z,100.00
2022-08-18T03:59:18.984Z,100.00
2022-08-18T04:02:21.005Z,100.00
2022-08-18T04:05:23.073Z,100.00
2022-08-18T04:08:25.095Z,100.00
2022-08-18T04:11:27.311Z,100.00
2022-08-18T04:14:29.346Z,100.00
2022-08-18T04:17:31.350Z,100.00
2022-08-18T04:20:33.590Z,100.00
2022-08-18T04:23:43.441Z,100.00
2022-08-18T04:26:47.759Z,100.00
2022-08-18T04:29:50.225Z,100.00
2022-08-18T04:32:52.353Z,100.00
2022-08-18T04:35:55.569Z,100.00
2022-08-18T04:38:58.090Z,100.00
2022-08-18T04:42:00.375Z,100.00
2022-08-18T04:45:02.402Z,100.00
2022-08-18T04:48:04.561Z,100.00
2022-08-18T04:51:09.973Z,100.00
2022-08-18T04:54:11.984Z,100.00
2022-08-18T04:57:16.933Z,100.00
2022-08-18T05:00:18.953Z,100.00
2022-08-18T05:03:20.986Z,100.00
2022-08-18T05:06:24.746Z,100.00
2022-08-18T05:09:27.014Z,100.00
2022-08-18T05:12:30.619Z,100.00
2022-08-18T05:15:52.707Z,100.00
2022-08-18T05:18:54.859Z,100.00
2022-08-18T05:22:00.103Z,100.00
2022-08-18T05:25:05.892Z,100.00
2022-08-18T05:28:07.902Z,100.00
2022-08-18T05:31:21.207Z,100.00
2022-08-18T05:34:23.208Z,100.00
2022-08-18T05:37:35.944Z,100.00
2022-08-18T05:40:38.199Z,100.00
2022-08-18T05:43:51.974Z,100.00
2022-08-18T05:46:56.523Z,100.00
2022-08-18T05:50:08.209Z,100.00
2022-08-18T05:53:14.849Z,100.00
2022-08-18T05:56:27.242Z,100.00
2022-08-18T05:59:35.529Z,100.00
2022-08-18T06:02:57.817Z,100.00
2022-08-18T06:06:02.805Z,100.00
2022-08-18T06:09:19.340Z,100.00
2022-08-18T06:12:31.141Z,100.00
2022-08-18T06:15:50.155Z,100.00
2022-08-18T06:19:17.541Z,100.00
2022-08-18T06:22:36.338Z,100.00
2022-08-18T06:26:31.584Z,100.00
2022-08-18T06:29:57.586Z,100.00
2022-08-18T06:33:18.584Z,100.00
2022-08-18T06:36:43.412Z,100.00
2022-08-18T06:39:49.523Z,100.00
2022-08-18T06:42:51.608Z,100.00
2022-08-18T06:45:54.605Z,100.00
2022-08-18T06:49:03.591Z,100.00
2022-08-18T06:52:26.705Z,97.85
2022-08-18T06:55:41.036Z,96.56
2022-08-18T06:58:43.062Z,98.54
2022-08-18T07:01:47.262Z,93.65
2022-08-18T07:05:18.644Z,90.34
2022-08-18T07:08:33.823Z,87.59
2022-08-18T07:11:37.654Z,87.59
2022-08-18T07:14:49.817Z,87.43
2022-08-18T07:18:04.133Z,84.79
2022-08-18T07:21:06.205Z,82.63
2022-08-18T07:24:24.821Z,81.33
2022-08-18T07:27:48.997Z,76.88
2022-08-18T07:31:15.574Z,69.92
2022-08-18T07:34:28.264Z,65.46
2022-08-18T07:37:42.481Z,64.07
2022-08-18T07:40:52.674Z,66.23
2022-08-18T07:43:57.659Z,63.75
2022-08-18T07:47:02.848Z,64.66
2022-08-18T07:50:31.528Z,59.02
2022-08-18T07:53:40.870Z,61.16
2022-08-18T07:56:43.977Z,62.09
2022-08-18T08:00:23.080Z,69.24
2022-08-18T08:03:51.731Z,69.43
2022-08-18T08:07:23.498Z,71.51
2022-08-18T08:10:39.417Z,64.60
2022-08-18T08:14:19.781Z,62.32
2022-08-18T08:17:42.619Z,58.50
2022-08-18T08:21:10.538Z,57.28
2022-08-18T08:24:18.409Z,56.40
2022-08-18T08:27:46.349Z,55.26
2022-08-18T08:31:33.463Z,54.80
2022-08-18T08:34:55.382Z,60.85
2022-08-18T08:38:38.729Z,65.36
2022-08-18T08:41:42.486Z,61.30
2022-08-18T08:45:00.475Z,57.64
2022-08-18T08:48:30.580Z,56.67
2022-08-18T08:51:39.414Z,53.40
2022-08-18T08:54:51.763Z,56.08
2022-08-18T08:58:18.489Z,59.73
2022-08-18T09:01:29.309Z,62.47
2022-08-18T09:05:07.352Z,67.72
2022-08-18T09:08:13.303Z,71.26
2022-08-18T09:11:46.933Z,71.82
2022-08-18T09:15:09.501Z,72.69
2022-08-18T09:18:38.844Z,72.07
2022-08-18T09:21:57.132Z,69.84
2022-08-18T09:24:59.845Z,60.37
2022-08-18T09:28:27.660Z,54.62
2022-08-18T09:31:32.343Z,51.25
2022-08-18T09:35:07.834Z,54.43
2022-08-18T09:38:22.123Z,60.43
2022-08-18T09:41:35.144Z,64.78
2022-08-18T09:44:46.691Z,66.63
2022-08-18T09:47:54.828Z,65.63
2022-08-18T09:51:21.091Z,67.35
2022-08-18T09:54:33.535Z,62.24
2022-08-18T09:57:42.382Z,56.61
2022-08-18T10:01:19.563Z,57.62
2022-08-18T10:04:29.533Z,57.31
2022-08-18T10:07:41.950Z,57.21
2022-08-18T10:11:20.690Z,54.25
2022-08-18T10:14:45.294Z,50.99
2022-08-18T10:17:56.925Z,50.82
2022-08-18T10:21:08.457Z,51.54
2022-08-18T10:27:41.907Z,48.09
2022-08-18T10:31:06.340Z,49.53
2022-08-18T10:34:16.928Z,45.40
2022-08-18T10:37:33.397Z,49.81
2022-08-18T10:40:36.603Z,50.26
2022-08-18T10:47:12.292Z,50.95
2022-08-18T10:50:22.831Z,49.66
2022-08-18T10:53:44.431Z,52.68
2022-08-18T10:56:54.384Z,52.87
2022-08-18T11:00:10.256Z,51.58
2022-08-18T11:03:51.152Z,50.66
2022-08-18T11:07:07.545Z,48.89
2022-08-18T11:10:29.858Z,49.86
2022-08-18T11:14:10.808Z,53.87
2022-08-18T11:17:28.950Z,55.66
2022-08-18T11:20:33.354Z,56.70
2022-08-18T11:23:35.508Z,60.34
2022-08-18T11:26:52.562Z,64.36
2022-08-18T11:30:00.622Z,62.39
2022-08-18T11:33:03.805Z,64.64
2022-08-18T11:36:06.535Z,59.20
2022-08-18T11:39:13.350Z,55.86
2022-08-18T11:42:25.051Z,50.13
2022-08-18T11:45:34.130Z,52.62
2022-08-18T11:48:50.992Z,51.36
2022-08-18T11:52:29.413Z,56.83
2022-08-18T11:55:36.857Z,61.14
2022-08-18T11:58:47.442Z,60.68
2022-08-18T12:01:55.079Z,61.34
2022-08-18T12:05:03.449Z,60.44
2022-08-18T12:08:50.620Z,63.09
2022-08-18T12:11:55.613Z,65.35
2022-08-18T12:15:10.406Z,65.05
2022-08-18T12:21:53.256Z,58.01
2022-08-18T12:24:57.552Z,56.89
2022-08-18T12:27:59.743Z,55.18
2022-08-18T12:31:01.775Z,56.18
2022-08-18T12:34:08.221Z,53.07
2022-08-18T12:37:56.933Z,55.36
2022-08-18T12:40:43.349Z,55.74
2022-08-18T12:43:45.346Z,56.11
2022-08-18T12:47:03.242Z,51.40
2022-08-18T12:50:06.735Z,53.37
2022-08-18T12:53:11.570Z,54.87
2022-08-18T12:56:28.802Z,57.41
2022-08-18T12:59:32.581Z,56.41
2022-08-18T13:02:39.515Z,56.45
2022-08-18T13:05:44.259Z,57.33
2022-08-18T13:08:51.135Z,59.72
2022-08-18T13:11:53.015Z,60.79
2022-08-18T13:14:55.271Z,58.09
2022-08-18T13:17:57.423Z,60.24
2022-08-18T13:20:59.569Z,57.97
2022-08-18T13:24:01.781Z,56.13
2022-08-18T13:27:18.467Z,56.07
2022-08-18T13:30:30.103Z,55.45
2022-08-18T13:33:57.386Z,55.29
2022-08-18T13:36:56.307Z,54.77
2022-08-18T13:40:00.064Z,53.15
2022-08-18T13:43:04.202Z,52.84
2022-08-18T13:46:17.613Z,53.96
2022-08-18T13:49:24.013Z,51.54
2022-08-18T13:52:34.660Z,53.56
2022-08-18T13:55:37.439Z,54.24
2022-08-18T13:58:39.458Z,55.69
2022-08-18T14:01:55.822Z,58.71
2022-08-18T14:04:58.425Z,56.66
2022-08-18T14:08:00.518Z,56.31
2022-08-18T14:11:03.545Z,58.11
2022-08-18T14:14:06.229Z,57.81
2022-08-18T14:17:08.193Z,57.22
2022-08-18T14:20:21.600Z,54.64
2022-08-18T14:23:32.311Z,52.71
2022-08-18T14:26:35.498Z,53.57
2022-08-18T14:29:46.558Z,52.82
2022-08-18T14:32:49.915Z,54.66
2022-08-18T14:36:06.419Z,53.26
2022-08-18T14:39:11.213Z,49.82
2022-08-18T14:42:15.227Z,50.63
2022-08-18T14:45:31.774Z,54.09
2022-08-18T14:48:37.310Z,49.49
2022-08-18T14:51:40.234Z,50.86
2022-08-18T14:54:46.127Z,49.18
2022-08-18T14:57:53.134Z,50.40
2022-08-18T15:01:00.042Z,51.68
2022-08-18T15:04:18.518Z,54.02
2022-08-18T15:07:23.840Z,54.48
2022-08-18T15:10:28.116Z,56.03
2022-08-18T15:13:30.551Z,57.05
2022-08-18T15:16:32.964Z,59.54
2022-08-18T15:20:00.347Z,64.51
2022-08-18T15:23:04.080Z,63.06
2022-08-18T15:26:06.606Z,63.12
2022-08-18T15:29:10.607Z,62.75
2022-08-18T15:32:17.750Z,63.58
2022-08-18T15:35:20.309Z,64.47
2022-08-18T15:38:23.919Z,63.74
2022-08-18T15:41:33.860Z,60.72
2022-08-18T15:44:36.913Z,60.46
2022-08-18T15:47:40.179Z,60.14
2022-08-18T15:50:43.823Z,60.28
2022-08-18T15:53:53.272Z,58.83
2022-08-18T15:56:58.747Z,60.18
2022-08-18T16:00:00.938Z,62.44
2022-08-18T16:03:08.878Z,63.87
2022-08-18T16:06:23.716Z,64.87
2022-08-18T16:09:29.921Z,62.96
2022-08-18T16:12:31.985Z,63.39
2022-08-18T16:15:37.448Z,65.00
2022-08-18T16:18:39.906Z,66.34
2022-08-18T16:21:42.109Z,66.31
2022-08-18T16:24:44.182Z,65.04
2022-08-18T16:27:46.346Z,67.39
2022-08-18T16:30:48.487Z,65.25
2022-08-18T16:33:52.587Z,64.80
2022-08-18T16:36:54.589Z,65.01
2022-08-18T16:39:56.700Z,65.47
2022-08-18T16:42:58.748Z,64.98
2022-08-18T16:46:00.797Z,64.45
2022-08-18T16:49:04.522Z,64.43
2022-08-18T16:52:07.540Z,64.15
2022-08-18T16:55:12.161Z,64.42
2022-08-18T16:58:15.719Z,64.20
2022-08-18T17:01:18.937Z,63.87
2022-08-18T17:04:25.201Z,63.75
2022-08-18T17:07:27.260Z,63.70
2022-08-18T17:13:33.267Z,64.58
2022-08-18T17:16:36.923Z,64.99
2022-08-18T17:19:38.979Z,63.86
2022-08-18T17:22:40.987Z,64.32
2022-08-18T17:25:43.629Z,63.87
2022-08-18T17:28:58.367Z,65.28
2022-08-18T17:32:08.486Z,65.99
2022-08-18T17:35:28.799Z,66.82
2022-08-18T17:38:46.097Z,67.11
2022-08-18T17:41:48.960Z,67.84
2022-08-18T17:44:54.967Z,66.70
2022-08-18T17:48:22.114Z,68.91
2022-08-18T17:51:31.310Z,69.75
2022-08-18T17:54:40.954Z,71.11
2022-08-18T17:58:10.992Z,72.14
2022-08-18T18:01:13.324Z,72.30
2022-08-18T18:04:15.331Z,72.96
2022-08-18T18:07:25.380Z,73.02
2022-08-18T18:10:27.340Z,72.42
2022-08-18T18:13:32.508Z,73.66
2022-08-18T18:16:34.877Z,74.97
2022-08-18T18:19:36.935Z,75.02
2022-08-18T18:22:40.076Z,75.99
2022-08-18T18:25:42.111Z,77.10
2022-08-18T18:28:44.129Z,77.08
2022-08-18T18:31:58.324Z,77.81
2022-08-18T18:35:17.326Z,78.29
2022-08-18T18:38:34.430Z,78.71
2022-08-18T18:41:39.997Z,78.79
2022-08-18T18:44:54.756Z,79.69
2022-08-18T18:48:01.855Z,80.24
2022-08-18T18:51:10.964Z,80.99
2022-08-18T18:54:38.408Z,81.81
2022-08-18T18:57:44.903Z,82.49
2022-08-18T19:00:55.968Z,82.63
2022-08-18T19:04:06.275Z,83.56
2022-08-18T19:07:21.379Z,84.20
2022-08-18T19:10:30.818Z,84.95
2022-08-18T19:13:43.423Z,86.38
2022-08-18T19:16:59.642Z,86.35
2022-08-18T19:20:22.092Z,86.52
2022-08-18T19:23:45.846Z,87.46
2022-08-18T19:26:52.196Z,87.69
2022-08-18T19:30:01.239Z,88.47
2022-08-18T19:33:05.633Z,89.58
2022-08-18T19:36:35.272Z,89.42
2022-08-18T19:39:46.398Z,89.60
2022-08-18T19:43:01.072Z,89.44
2022-08-18T19:46:19.591Z,90.16
2022-08-18T19:49:33.477Z,90.58
2022-08-18T19:53:10.973Z,91.21
2022-08-18T19:56:34.276Z,91.63
2022-08-18T20:00:03.327Z,92.90
2022-08-18T20:03:32.962Z,94.64
2022-08-18T20:07:08.407Z,94.81
2022-08-18T20:10:24.952Z,94.91
2022-08-18T20:13:43.106Z,95.93
2022-08-18T20:17:15.932Z,96.93
2022-08-18T20:20:18.014Z,97.61
2022-08-18T20:23:56.240Z,99.02
2022-08-18T20:27:15.142Z,100.00
2022-08-18T20:30:19.881Z,100.00
2022-08-18T20:33:25.897Z,100.00
2022-08-18T20:36:35.810Z,100.00
2022-08-18T20:39:49.398Z,100.00
2022-08-18T20:42:56.147Z,100.00
2022-08-18T20:46:31.542Z,100.00
2022-08-18T20:49:51.354Z,100.00
2022-08-18T20:52:56.023Z,100.00
2022-08-18T20:56:43.921Z,100.00
2022-08-18T20:59:57.574Z,100.00
2022-08-18T21:03:07.100Z,100.00
2022-08-18T21:06:10.128Z,100.00
2022-08-18T21:09:17.573Z,100.00
2022-08-18T21:12:25.445Z,100.00
2022-08-18T21:15:45.234Z,100.00
2022-08-18T21:18:51.718Z,100.00
2022-08-18T21:21:58.635Z,100.00
2022-08-18T21:25:01.907Z,100.00
2022-08-18T21:28:06.017Z,100.00
2022-08-18T21:31:29.168Z,100.00
2022-08-18T21:34:45.470Z,100.00
2022-08-18T21:38:04.272Z,100.00
2022-08-18T21:41:12.288Z,100.00
2022-08-18T21:44:32.045Z,100.00
2022-08-18T21:47:34.837Z,100.00
2022-08-18T21:50:37.420Z,100.00
2022-08-18T21:53:39.503Z,100.00
2022-08-18T21:56:41.557Z,100.00
2022-08-18T22:00:11.368Z,100.00
2022-08-18T22:03:22.294Z,100.00
2022-08-18T22:06:30.237Z,100.00
2022-08-18T22:09:35.498Z,100.00
2022-08-18T22:12:37.502Z,100.00
2022-08-18T22:15:44.365Z,100.00
2022-08-18T22:18:46.408Z,100.00
2022-08-18T22:22:00.789Z,100.00
2022-08-18T22:25:05.817Z,100.00
2022-08-18T22:28:07.876Z,100.00
2022-08-18T22:31:09.925Z,100.00
2022-08-18T22:34:14.083Z,100.00
2022-08-18T22:37:21.124Z,100.00
2022-08-18T22:40:23.208Z,100.00
2022-08-18T22:43:25.686Z,100.00
2022-08-18T22:46:27.731Z,100.00
2022-08-18T22:49:30.641Z,100.00
2022-08-18T22:52:39.873Z,100.00
2022-08-18T22:55:41.898Z,100.00
2022-08-18T22:58:43.952Z,100.00
2022-08-18T23:01:50.162Z,100.00
2022-08-18T23:04:52.298Z,100.00
2022-08-18T23:07:54.569Z,100.00
2022-08-18T23:10:56.601Z,100.00
2022-08-18T23:14:02.407Z,100.00
2022-08-18T23:17:05.764Z,100.00
2022-08-18T23:20:11.973Z,100.00
2022-08-18T23:23:19.230Z,100.00
2022-08-18T23:26:23.254Z,100.00
2022-08-18T23:29:25.564Z,100.00
2022-08-18T23:32:30.191Z,100.00
2022-08-18T23:35:34.069Z,100.00
2022-08-18T23:38:36.876Z,100.00
2022-08-18T23:41:38.897Z,100.00
2022-08-18T23:44:41.044Z,100.00
2022-08-18T23:47:43.200Z,100.00
2022-08-18T23:50:46.492Z,100.00
2022-08-18T23:53:48.513Z,100.00
2022-08-18T23:56:50.609Z,100.00
2022-08-18T23:59:52.634Z,100.00
